x

North Hecate Strait (46183) Wave Buoy

2:00pm - Sat 25th Apr 2015 All times are PDT. -7 hours from GMT.

  • Sig Wave height 1.3ft
  • Peak Period 3s
  • Wind
    16mph, 18mph gusts
  • Sea Temp 49°f
  • Air Temp 48°f
  • Sea Pressure 1013.7mb
  • North Hecate Strait
  • North Hecate Strait

More Historic Weather Station data

Upgrade to MSW Pro to gain access to the past 30 days of data for over 8000 Wavebouys and Weather Stations around the globe.

Join Pro

Comparision Forecast

View Surf forecast
   
Sat 04/25 2:00pm 1.3ft 3s 16 18 mph 1013.7mb 49f 48f
1:00pm 1.3ft 15s 13 16 mph 1014.2mb 49f 48f
12:00pm 1ft 16s 11 13 mph 1014mb 49f 48f
11:00am 1ft 16s 9 11 mph 1013.9mb 49f 48f
10:00am 1ft 16s 9
mph
1013.8mb 49f 48f
9:00am 1ft 4s 7 9 mph 1013.9mb 49f 48f
8:00am 1.3ft 16s 7
mph
1013.9mb 49f 48f
7:00am 1.3ft 4s 4 7 mph 1013.6mb 49f 47f
6:00am 1.3ft 4s 4 7 mph 1013.3mb 48f 47f
5:00am 1.6ft 4s 4 7 mph 1013.2mb 48f 47f
4:00am 1.6ft 4s 4 7 mph 1012.9mb 49f 47f
3:00am 1.6ft 4s 7 9 mph 1012.8mb 49f 47f
2:00am 1.6ft 5s 7
mph
1012.8mb 49f 47f
1:00am 1.6ft 5s 7
mph
1012.6mb 49f 47f
12:00am 1.6ft 5s 4 7 mph 1012.4mb 49f 47f
Fri 04/24 11:00pm 1.6ft 5s 4 7 mph 1012.3mb 49f 47f
10:00pm 2ft 5s 7
mph
1011.9mb 49f 47f
9:00pm 2ft 5s 4 7 mph 1011.2mb 49f 47f
8:00pm 2.5ft 5s 7 9 mph 1010.7mb 49f 47f
7:00pm 2ft 4s 9 11 mph 1010.2mb 49f 47f
6:00pm 2.5ft 4s 11 13 mph 1009.8mb 49f 47f
5:00pm 2.5ft 4s 13 16 mph 1009.2mb 49f 47f
4:00pm 2ft 13s 11 13 mph 1008.9mb 49f 47f
3:00pm 2.5ft 5s 4 9 mph 1008.6mb 49f 49f
2:00pm 2.5ft 5s 4 7 mph 1008.2mb 49f 48f
1:00pm 2.5ft 5s 9 11 mph 1007.6mb 49f 48f
12:00pm 3.5ft 5s 11 13 mph 1007.3mb 49f 48f
11:00am 3.5ft 4s 16 18 mph 1006.6mb 49f 48f
10:00am 4ft 5s 20 22 mph 1005.6mb 49f 48f
9:00am 4.5ft 4s 18 22 mph 1005.3mb 48f 47f
8:00am 4.5ft 5s 22 27 mph 1005mb 48f 46f
7:00am 4.5ft 5s 22 27 mph 1004.9mb 49f 46f
6:00am 4.5ft 4s 22 27 mph 1004.6mb 48f 46f
5:00am 4.5ft 5s 20 27 mph 1004.9mb 48f 46f
4:00am 3.5ft 4s 22 27 mph 1004.7mb 48f 46f
3:00am 2.5ft 14s 18 20 mph 1005.3mb 49f 46f
2:00am 2.5ft 8s 16 18 mph 1005.8mb 49f 46f
1:00am 2.5ft 14s 13 18 mph 1006.2mb 49f 47f
12:00am 2.5ft 7s 11 16 mph 1006.4mb 49f 47f
Thu 04/23 11:00pm 2.5ft 7s 7 9 mph 1006.8mb 49f 47f
10:00pm 2.5ft 8s 7 9 mph 1006.7mb 49f 47f
9:00pm 3ft 7s 7 9 mph 1006.6mb 49f 47f
8:00pm 3ft 8s 7 9 mph 1006.4mb 49f 47f
7:00pm 3.5ft 7s 4 7 mph 1006.3mb 49f 47f
6:00pm 4ft 8s 2 4 mph 1006.1mb 49f 47f
5:00pm 4.5ft 8s 2 4 mph 1006mb 49f 47f
4:00pm 4.5ft 8s 4 7 mph 1005.8mb 49f 47f
3:00pm 4.5ft 8s 9 13 mph 1006.1mb 49f 46f
2:00pm 4.5ft 8s  -  mph 1006.4mb 49f 46f
1:00pm 5ft 9s 16 18 mph 1006.3mb 49f 44f
12:00pm 5ft 9s 18 20 mph 1005.9mb 49f 45f
11:00am 5ft 9s 18 22 mph 1005.7mb 49f 44f
10:00am 5.5ft 9s 11 18 mph 1005.2mb 49f 46f
9:00am 6ft 10s 9 11 mph 1004.8mb 48f 47f
8:00am 7.5ft 10s 11 13 mph 1004.1mb 48f 46f
7:00am 8.5ft 8s 13 18 mph 1003.2mb 48f 45f
6:00am 9ft 9s 18 22 mph 1002mb 48f 45f
5:00am 11.5ft 9s 13 18 mph 1000.8mb 48f 44f
4:00am 14.5ft 9s 25 29 mph 1001.4mb 49f 42f
3:00am 14.5ft 8s 38 49 mph 1001.3mb 49f 44f
2:00am 12ft 8s 38 47 mph 1001.9mb 48f 42f
1:00am 11.5ft 8s 36 45 mph 1003.2mb 49f 43f
12:00am 12ft 8s 36 43 mph 1004.7mb 49f 44f
Wed 04/22 11:00pm 11ft 8s 34 43 mph 1005.8mb 49f 44f
10:00pm 9.5ft 7s 36 43 mph 1006.7mb 49f 45f
9:00pm  -   -  31
mph
- - 45f
8:00pm 8.5ft 7s 31 40 mph 1008.5mb 49f 45f
7:00pm 7ft 6s 31 40 mph 1009.8mb 49f 46f
6:00pm 6ft 5s 31 38 mph 1011.2mb 49f 45f
5:00pm 5ft 5s 29 34 mph 1012.6mb 49f 44f
4:00pm 4ft 4s 29 36 mph 1013.8mb 49f 46f
3:00pm 3ft 3s 27 29 mph 1015.1mb 49f 46f
2:00pm 2ft 3s 22 27 mph 1016.4mb 49f 45f
1:00pm 1.3ft 15s 18 22 mph 1017.5mb 49f 45f
12:00pm 1ft 10s 13 16 mph 1018.4mb 49f 44f
11:00am 1.3ft 11s 9 11 mph 1019.3mb 49f 44f
10:00am 1.3ft 3s 4 7 mph 1019.8mb 49f 44f
9:00am 2ft 3s 4 7 mph 1020.2mb 49f 44f
8:00am 2.5ft 4s 9 11 mph 1020.5mb 48f 44f
7:00am 2.5ft 4s 11 16 mph 1020.3mb 48f 44f
6:00am 3.5ft 4s 13 16 mph 1020.3mb 48f 44f
5:00am 3.5ft 4s 13 18 mph 1020.6mb 48f 44f
4:00am 3.5ft 4s 18 20 mph 1020.4mb 48f 44f
3:00am 4.5ft 5s 18 22 mph 1020.7mb 49f 44f
2:00am 3.5ft 5s 18 22 mph 1020.9mb 49f 44f
1:00am 3.5ft 5s 18 22 mph 1021.1mb 49f 44f
12:00am 3.5ft 5s 20 25 mph 1021mb 49f 44f
Tue 04/21 11:00pm 3.5ft 4s 20 25 mph 1021.1mb 49f 45f